Time;durP1;ratioP1;P1;durP2;ratioP2;P2;SDS_P1;SDS_P2;PMS_P1;PMS_P2;Temp;Humidity;BMP_temperature;BMP_pressure;BME280_temperature;BME280_humidity;BME280_pressure;Samples;Min_cycle;Max_cycle;Signal;HPM_P1;HPM_P2
2022/08/30 00:03:41;;;;;;;1.45;1.02;;;;;;;13.29;98.12;101526.50;6046323;28;20042;-66
2022/08/30 00:06:36;;;;;;;1.25;0.88;;;;;;;13.46;97.30;101529.22;6040638;28;20066;-65
2022/08/30 00:09:31;;;;;;;1.03;0.90;;;;;;;13.43;96.55;101529.53;6045301;28;20041;-65
2022/08/30 00:12:27;;;;;;;3.10;1.27;;;;;;;13.29;96.74;101551.28;6047907;28;20040;-65
2022/08/30 00:15:23;;;;;;;1.67;1.10;;;;;;;13.14;97.07;101550.06;6048309;28;20034;-65
2022/08/30 00:18:19;;;;;;;2.58;1.10;;;;;;;12.98;97.87;101531.97;6046854;28;20053;-64
2022/08/30 00:21:15;;;;;;;1.58;1.00;;;;;;;12.89;98.67;101537.28;6047061;28;20061;-64
2022/08/30 00:24:10;;;;;;;1.73;1.23;;;;;;;13.18;98.79;101547.97;6048031;28;20420;-64
2022/08/30 00:27:05;;;;;;;1.90;1.10;;;;;;;13.06;98.75;101537.41;6034418;28;20038;-64
2022/08/30 00:30:01;;;;;;;2.20;1.20;;;;;;;12.85;98.73;101539.41;6047478;28;20801;-63
2022/08/30 00:32:57;;;;;;;2.03;1.17;;;;;;;12.71;99.33;101542.47;6047294;28;20022;-64
2022/08/30 00:35:53;;;;;;;2.53;1.13;;;;;;;12.65;99.98;101543.03;6047714;28;20508;-63
2022/08/30 00:38:48;;;;;;;2.05;1.33;;;;;;;12.83;100.00;101529.84;6047760;28;20030;-64
2022/08/30 00:41:43;;;;;;;3.27;1.20;;;;;;;12.74;99.99;101547.53;6041677;28;20033;-63
2022/08/30 00:44:40;;;;;;;2.10;1.30;;;;;;;12.58;99.98;101525.94;6047263;28;20069;-63
2022/08/30 00:47:36;;;;;;;1.92;1.10;;;;;;;12.79;100.00;101545.28;6047291;28;20034;-64
2022/08/30 00:51:00;;;;;;;4.10;1.10;;;;;;;12.74;99.50;101526.22;6046466;28;20637;-63
2022/08/30 00:53:55;;;;;;;1.70;1.30;;;;;;;12.59;99.21;101532.94;6043963;28;20277;-62
2022/08/30 00:56:51;;;;;;;3.13;1.80;;;;;;;12.64;99.29;101546.66;6042735;28;20042;-63
2022/08/30 00:59:48;;;;;;;2.53;1.50;;;;;;;12.76;100.00;101544.72;6046158;28;20065;-64
2022/08/30 01:02:43;;;;;;;3.15;1.80;;;;;;;13.25;100.00;101536.59;6037029;28;20030;-64
2022/08/30 01:05:38;;;;;;;4.73;2.00;;;;;;;13.25;98.74;101531.25;6041304;28;20041;-63
2022/08/30 01:08:34;;;;;;;2.37;1.40;;;;;;;13.17;98.20;101538.28;6046273;28;20053;-64
2022/08/30 01:11:31;;;;;;;3.13;1.70;;;;;;;13.24;97.88;101539.38;6045221;28;20289;-63
2022/08/30 01:14:27;;;;;;;3.10;1.95;;;;;;;13.46;97.27;101539.03;6046953;28;20041;-64
2022/08/30 01:17:22;;;;;;;2.85;1.92;;;;;;;13.03;96.28;101537.69;6046645;28;20117;-64
2022/08/30 01:20:23;;;;;;;2.83;1.70;;;;;;;12.71;97.53;101536.31;6044738;28;20034;-64
2022/08/30 01:23:19;;;;;;;3.20;1.63;;;;;;;12.61;98.31;101544.25;6061831;28;20041;-62
2022/08/30 01:26:16;;;;;;;2.97;1.60;;;;;;;12.39;98.68;101541.88;6061574;28;20037;-64
2022/08/30 01:29:15;;;;;;;3.05;1.52;;;;;;;12.32;98.77;101538.06;6044186;28;20474;-64
2022/08/30 01:32:22;;;;;;;3.00;1.80;;;;;;;12.64;99.73;101527.22;6045668;28;20034;-64
2022/08/30 01:35:18;;;;;;;3.92;1.83;;;;;;;12.76;97.99;101529.59;6040706;28;20098;-62
2022/08/30 01:38:14;;;;;;;3.08;1.77;;;;;;;12.70;98.24;101546.09;6042409;28;20366;-64
2022/08/30 01:41:25;;;;;;;3.78;2.08;;;;;;;12.76;98.56;101550.88;6044198;28;20026;-63
2022/08/30 01:44:20;;;;;;;5.50;1.95;;;;;;;12.92;98.70;101550.31;6045632;28;20046;-64
2022/08/30 01:47:17;;;;;;;4.70;2.13;;;;;;;13.06;98.25;101542.75;6046197;28;20029;-65
2022/08/30 01:50:12;;;;;;;7.05;3.33;;;;;;;13.40;98.11;101539.66;6033913;28;20034;-64
2022/08/30 01:53:08;;;;;;;5.93;2.60;;;;;;;13.78;98.65;101534.16;6044721;28;20041;-64
2022/08/30 01:56:04;;;;;;;10.35;3.60;;;;;;;14.06;97.96;101549.22;6045300;28;20052;-65
2022/08/30 01:58:59;;;;;;;7.13;3.70;;;;;;;13.79;97.81;101540.34;6045211;28;20040;-64
2022/08/30 02:01:54;;;;;;;6.90;3.70;;;;;;;13.69;97.97;101530.56;6043275;28;20619;-65
2022/08/30 02:04:52;;;;;;;7.73;4.33;;;;;;;13.67;98.53;101534.34;6046349;28;20046;-65
2022/08/30 02:07:47;;;;;;;7.32;3.53;;;;;;;13.84;98.27;101538.91;6050518;28;20030;-64
2022/08/30 02:10:43;;;;;;;8.47;4.20;;;;;;;13.67;98.58;101539.69;6050565;28;20385;-65
2022/08/30 02:13:40;;;;;;;35.83;5.40;;;;;;;13.59;98.37;101544.91;6037082;28;20510;-65
2022/08/30 02:16:35;;;;;;;11.55;4.40;;;;;;;13.50;99.47;101533.31;6042741;28;20035;-66
2022/08/30 02:19:30;;;;;;;20.97;4.53;;;;;;;13.77;98.98;101537.84;6050739;28;20045;-65
2022/08/30 02:22:26;;;;;;;14.43;5.50;;;;;;;13.52;98.52;101538.47;6049796;28;20088;-65
2022/08/30 02:25:21;;;;;;;13.23;4.17;;;;;;;13.43;99.68;101534.00;6050634;28;20367;-64
2022/08/30 02:28:18;;;;;;;36.57;4.97;;;;;;;13.36;99.71;101530.25;6049627;28;20053;-63
2022/08/30 02:31:14;;;;;;;17.13;5.55;;;;;;;13.40;100.00;101534.31;6049229;28;20073;-65
2022/08/30 02:34:09;;;;;;;13.48;4.20;;;;;;;13.34;100.00;101534.88;6050780;28;20057;-65
2022/08/30 02:37:05;;;;;;;18.67;4.27;;;;;;;13.32;100.00;101532.34;6050402;28;20080;-65
2022/08/30 02:40:00;;;;;;;24.20;4.18;;;;;;;13.54;100.00;101533.84;6050171;28;20060;-65
2022/08/30 02:42:55;;;;;;;29.40;4.60;;;;;;;13.56;99.86;101534.56;6048767;28;20030;-65
2022/08/30 02:45:51;;;;;;;28.60;4.35;;;;;;;13.18;99.75;101527.47;6050167;28;20068;-64
2022/08/30 02:48:46;;;;;;;8.25;5.05;;;;;;;13.58;100.00;101532.56;6049338;28;20038;-64
2022/08/30 02:51:42;;;;;;;11.43;4.87;;;;;;;13.67;100.00;101542.34;6049114;28;20044;-65
2022/08/30 02:54:37;;;;;;;8.77;3.70;;;;;;;13.56;99.71;101529.22;6049985;28;20026;-64
2022/08/30 02:57:33;;;;;;;7.03;3.57;;;;;;;13.85;99.01;101527.28;6046837;28;20295;-66
2022/08/30 03:00:28;;;;;;;7.40;3.67;;;;;;;14.11;97.57;101536.25;6044400;28;20072;-65
2022/08/30 03:03:24;;;;;;;10.97;4.33;;;;;;;13.82;96.12;101514.25;6039394;28;20037;-65
2022/08/30 03:06:19;;;;;;;7.75;3.53;;;;;;;14.01;96.38;101530.16;6048734;28;20760;-64
2022/08/30 03:09:14;;;;;;;19.33;3.23;;;;;;;13.90;95.88;101521.50;6049718;28;20029;-65
2022/08/30 03:12:11;;;;;;;6.97;3.50;;;;;;;13.85;95.97;101521.94;6048029;28;20288;-65
2022/08/30 03:15:07;;;;;;;8.70;3.20;;;;;;;13.98;95.13;101530.44;6049709;28;20056;-65
2022/08/30 03:18:02;;;;;;;13.25;3.13;;;;;;;13.77;94.91;101523.66;6048268;28;20037;-65
2022/08/30 03:20:58;;;;;;;29.03;3.80;;;;;;;13.42;95.34;101519.03;6048572;28;20030;-64
2022/08/30 03:23:53;;;;;;;5.43;3.00;;;;;;;13.27;97.51;101539.94;6049639;28;20775;-65
2022/08/30 03:26:48;;;;;;;9.90;3.73;;;;;;;13.35;98.27;101536.53;6048259;28;20036;-63
2022/08/30 03:29:44;;;;;;;6.27;3.60;;;;;;;13.51;97.96;101544.78;6048628;28;20048;-65
2022/08/30 03:32:40;;;;;;;9.17;4.87;;;;;;;13.15;98.92;101540.25;6048452;28;20132;-63
2022/08/30 03:35:35;;;;;;;6.68;3.42;;;;;;;13.17;98.96;101543.59;6048828;28;20104;-64
2022/08/30 03:38:30;;;;;;;16.35;4.03;;;;;;;13.01;98.96;101528.19;6048915;28;20112;-64
2022/08/30 03:41:25;;;;;;;21.47;4.37;;;;;;;13.15;99.44;101541.09;6048108;28;20109;-64
2022/08/30 03:44:21;;;;;;;15.83;3.93;;;;;;;13.18;99.42;101540.78;6048304;28;20384;-64
2022/08/30 03:47:16;;;;;;;9.50;3.93;;;;;;;13.31;99.94;101529.84;6045815;28;20049;-65
2022/08/30 03:50:13;;;;;;;10.02;4.20;;;;;;;13.55;99.22;101527.53;6048074;28;20073;-65
2022/08/30 03:53:08;;;;;;;8.35;3.10;;;;;;;13.38;97.75;101537.09;6048728;28;20041;-64
2022/08/30 03:56:04;;;;;;;7.50;3.23;;;;;;;13.29;97.27;101543.28;6047730;28;20038;-65
2022/08/30 03:58:59;;;;;;;6.82;3.10;;;;;;;13.13;98.37;101539.56;6048589;28;20018;-64
2022/08/30 04:01:54;;;;;;;13.33;3.90;;;;;;;13.11;98.17;101551.19;6046919;28;20401;-65
2022/08/30 04:04:50;;;;;;;8.77;3.60;;;;;;;13.27;99.44;101547.09;6048306;28;20529;-64
2022/08/30 04:07:45;;;;;;;11.85;3.90;;;;;;;13.31;98.76;101548.50;6048279;28;20064;-65
2022/08/30 04:10:40;;;;;;;12.60;3.57;;;;;;;13.52;98.50;101554.47;6047455;28;20046;-64
2022/08/30 04:13:35;;;;;;;11.93;3.60;;;;;;;13.33;97.73;101558.03;6048608;28;20052;-64
2022/08/30 04:16:31;;;;;;;14.20;3.87;;;;;;;13.24;99.03;101544.69;6046609;28;20038;-65
2022/08/30 04:19:26;;;;;;;42.03;5.78;;;;;;;13.34;98.63;101554.38;6036591;28;20037;-65
2022/08/30 04:22:21;;;;;;;8.13;4.43;;;;;;;13.67;99.12;101542.34;6039221;28;20121;-66
2022/08/30 04:25:17;;;;;;;34.07;4.73;;;;;;;13.63;98.13;101554.28;6046432;28;20025;-65
2022/08/30 04:28:12;;;;;;;11.25;4.15;;;;;;;13.54;98.26;101542.69;6040818;28;20099;-65
2022/08/30 04:31:13;;;;;;;8.80;4.53;;;;;;;13.59;98.95;101552.88;6047134;28;20112;-64
2022/08/30 04:34:10;;;;;;;26.67;6.03;;;;;;;13.76;98.27;101561.97;6047173;28;20034;-64
2022/08/30 04:37:05;;;;;;;11.90;4.53;;;;;;;13.73;99.06;101552.44;6047900;28;20038;-65
2022/08/30 04:40:02;;;;;;;9.52;4.80;;;;;;;13.77;98.51;101553.00;6047425;28;20493;-64
2022/08/30 04:42:59;;;;;;;12.95;5.53;;;;;;;13.93;97.18;101553.19;6047418;28;20064;-65
2022/08/30 04:45:55;;;;;;;22.00;4.30;;;;;;;13.89;96.40;101562.50;6047122;28;20042;-65
2022/08/30 04:48:52;;;;;;;9.18;4.72;;;;;;;13.75;97.33;101554.97;6046779;28;20046;-64
2022/08/30 04:51:47;;;;;;;13.07;4.45;;;;;;;13.90;97.03;101565.00;6041897;28;20026;-65
2022/08/30 04:54:44;;;;;;;15.70;4.78;;;;;;;13.80;96.55;101572.22;6046664;28;20049;-64
2022/08/30 04:57:39;;;;;;;9.88;4.97;;;;;;;13.94;97.37;101581.56;6046838;28;20478;-64
2022/08/30 05:00:36;;;;;;;11.60;4.90;;;;;;;13.85;96.69;101582.44;6046475;28;20041;-64
2022/08/30 05:03:31;;;;;;;10.15;4.75;;;;;;;13.88;97.57;101588.31;6047122;28;20033;-64
2022/08/30 05:06:29;;;;;;;9.95;5.00;;;;;;;13.69;98.09;101577.72;6046125;28;20398;-65
2022/08/30 05:09:25;;;;;;;18.02;5.15;;;;;;;13.88;98.67;101590.13;6045229;28;20033;-64
2022/08/30 05:12:20;;;;;;;13.57;4.97;;;;;;;13.83;98.43;101600.41;6032858;28;20033;-65
2022/08/30 05:15:15;;;;;;;11.10;5.33;;;;;;;13.99;98.35;101609.47;6046698;28;20065;-66
2022/08/30 05:18:11;;;;;;;11.40;5.50;;;;;;;13.99;98.44;101604.13;6038733;28;20046;-64
2022/08/30 05:21:16;;;;;;;10.60;4.88;;;;;;;14.12;99.08;101596.63;6046143;28;20108;-64
2022/08/30 05:24:11;;;;;;;13.90;5.80;;;;;;;13.88;97.41;101606.97;6025261;28;20083;-64
2022/08/30 05:27:07;;;;;;;12.73;5.73;;;;;;;13.92;98.31;101599.50;6044013;28;20034;-65
2022/08/30 05:30:05;;;;;;;8.60;4.70;;;;;;;14.00;98.96;101599.63;6045849;28;20423;-64
2022/08/30 05:33:01;;;;;;;13.38;5.32;;;;;;;14.03;98.43;101597.50;6041348;28;20125;-64
2022/08/30 05:35:56;;;;;;;11.35;5.25;;;;;;;14.12;98.26;101599.31;6045667;28;20073;-65
2022/08/30 05:38:52;;;;;;;8.07;4.70;;;;;;;13.99;97.53;101612.13;6046528;28;20030;-65
2022/08/30 05:41:47;;;;;;;15.02;4.88;;;;;;;14.03;98.25;101613.50;6042918;28;20113;-63
2022/08/30 05:44:43;;;;;;;9.47;4.70;;;;;;;14.08;98.45;101605.91;6042903;28;20037;-64
2022/08/30 05:47:38;;;;;;;8.93;5.00;;;;;;;14.04;98.20;101609.03;6043569;28;20056;-63
2022/08/30 05:50:34;;;;;;;9.23;4.78;;;;;;;13.88;98.73;101614.97;6032585;28;20045;-63
2022/08/30 05:53:29;;;;;;;10.67;5.23;;;;;;;14.02;99.80;101601.16;6036143;28;20061;-64
2022/08/30 05:56:30;;;;;;;10.00;4.60;;;;;;;14.32;99.62;101615.25;6029976;28;20050;-64
2022/08/30 05:59:25;;;;;;;10.25;5.35;;;;;;;14.40;98.42;101600.19;6042035;28;20632;-65
2022/08/30 06:02:20;;;;;;;12.07;4.73;;;;;;;14.36;98.00;101597.94;6040316;28;20099;-64
2022/08/30 06:05:16;;;;;;;13.63;4.77;;;;;;;14.41;97.96;101612.53;6039128;28;20868;-65
2022/08/30 06:08:11;;;;;;;13.83;5.23;;;;;;;14.43;98.86;101607.88;6060352;28;20296;-66
2022/08/30 06:11:06;;;;;;;11.27;5.10;;;;;;;14.37;99.29;101610.31;6036402;28;20050;-64
2022/08/30 06:14:03;;;;;;;13.10;5.38;;;;;;;14.32;99.00;101601.91;6036336;28;20364;-64
2022/08/30 06:16:58;;;;;;;13.30;6.40;;;;;;;14.45;99.77;101597.06;6038922;28;20110;-66
2022/08/30 06:19:54;;;;;;;13.90;6.97;;;;;;;14.36;99.76;101605.94;6038513;28;20042;-64
2022/08/30 06:22:49;;;;;;;20.90;6.40;;;;;;;14.45;100.00;101607.75;6041825;28;20046;-66
2022/08/30 06:25:45;;;;;;;13.77;6.53;;;;;;;14.64;99.97;101603.13;6034692;28;20112;-65
2022/08/30 06:28:40;;;;;;;12.15;5.00;;;;;;;14.94;98.59;101603.75;6031499;28;20372;-66
2022/08/30 06:31:36;;;;;;;18.00;6.10;;;;;;;14.63;98.00;101600.59;6033577;28;20046;-63
2022/08/30 06:34:31;;;;;;;14.48;6.22;;;;;;;14.83;98.80;101610.16;6040430;28;20085;-65
2022/08/30 06:37:27;;;;;;;15.80;5.82;;;;;;;14.92;99.23;101603.91;6045654;28;20457;-64
2022/08/30 06:40:22;;;;;;;12.40;5.27;;;;;;;15.18;98.41;101610.16;6033702;28;20030;-65
2022/08/30 06:43:17;;;;;;;14.63;5.60;;;;;;;14.93;97.06;101608.25;6042764;28;20096;-66
2022/08/30 06:46:15;;;;;;;11.73;5.80;;;;;;;15.07;97.43;101612.22;6041519;28;20324;-65
2022/08/30 06:49:11;;;;;;;15.80;6.32;;;;;;;15.29;97.62;101625.97;6039497;28;20434;-65
2022/08/30 06:52:06;;;;;;;12.53;6.17;;;;;;;15.05;97.22;101628.41;6036837;28;20033;-65
2022/08/30 06:55:01;;;;;;;14.23;6.00;;;;;;;15.09;97.29;101608.41;6038849;28;20069;-65
2022/08/30 06:57:57;;;;;;;11.50;5.45;;;;;;;15.36;96.50;101605.63;6031830;28;20089;-65
2022/08/30 07:00:52;;;;;;;14.03;6.10;;;;;;;15.58;94.92;101623.03;6044298;28;20056;-66
2022/08/30 07:03:49;;;;;;;12.15;5.55;;;;;;;15.51;94.40;101610.47;6041632;28;20029;-66
2022/08/30 07:06:44;;;;;;;13.63;5.88;;;;;;;15.46;95.15;101619.78;6048858;28;20034;-65
2022/08/30 07:09:42;;;;;;;13.45;5.50;;;;;;;15.65;94.64;101636.63;6043660;28;20076;-65
2022/08/30 07:12:37;;;;;;;12.50;5.13;;;;;;;15.92;94.21;101633.81;6037270;28;20040;-66
2022/08/30 07:15:32;;;;;;;9.10;4.90;;;;;;;15.96;92.49;101635.16;6044675;28;20047;-65
2022/08/30 07:21:52;;;;;;;7.95;4.20;;;;;;;15.80;92.03;101640.41;6035180;28;20048;-64
2022/08/30 07:24:47;;;;;;;9.57;4.93;;;;;;;15.72;91.51;101635.84;6043529;28;20026;-65
2022/08/30 07:27:44;;;;;;;8.13;3.75;;;;;;;16.03;91.35;101639.72;6038519;28;20026;-66
2022/08/30 07:30:40;;;;;;;8.55;4.03;;;;;;;16.06;91.26;101642.06;6024343;28;20092;-65
2022/08/30 07:33:36;;;;;;;7.15;3.67;;;;;;;15.99;90.63;101634.84;6026205;28;20045;-65
2022/08/30 07:36:32;;;;;;;7.47;3.45;;;;;;;15.97;91.04;101645.72;6048700;28;20468;-65
2022/08/30 07:39:27;;;;;;;7.30;3.67;;;;;;;16.03;90.50;101630.88;6047490;28;20581;-64
2022/08/30 07:42:22;;;;;;;8.83;3.77;;;;;;;15.53;92.22;101645.88;6036687;28;20103;-63
2022/08/30 07:45:18;;;;;;;8.20;3.93;;;;;;;15.57;93.17;101655.28;6045425;28;20042;-64
2022/08/30 07:48:14;;;;;;;8.50;4.28;;;;;;;15.61;92.19;101646.78;6040440;28;20037;-64
2022/08/30 07:51:12;;;;;;;8.35;4.20;;;;;;;15.70;92.59;101647.69;6035567;28;20521;-65
2022/08/30 07:54:07;;;;;;;7.10;3.80;;;;;;;15.95;91.52;101655.72;6043436;28;20083;-66
2022/08/30 07:57:03;;;;;;;7.18;3.47;;;;;;;15.73;91.99;101660.75;6025749;28;20060;-65
2022/08/30 07:59:59;;;;;;;8.95;4.38;;;;;;;15.87;91.29;101652.19;6030577;28;20490;-66
2022/08/30 08:02:54;;;;;;;8.90;4.53;;;;;;;16.00;90.74;101668.66;6037659;28;20034;-64
2022/08/30 08:05:51;;;;;;;8.10;3.87;;;;;;;15.89;90.25;101661.72;6045223;28;20050;-65
2022/08/30 08:08:47;;;;;;;7.80;4.05;;;;;;;16.10;90.08;101672.03;6035800;28;20025;-65
2022/08/30 08:11:43;;;;;;;8.20;4.18;;;;;;;16.01;90.97;101659.59;6039211;28;20389;-65
2022/08/30 08:14:40;;;;;;;7.05;3.63;;;;;;;16.18;88.86;101656.03;6027332;28;20064;-64
2022/08/30 08:17:35;;;;;;;8.68;4.28;;;;;;;16.19;88.95;101655.03;6033555;28;20493;-66
2022/08/30 08:20:32;;;;;;;8.23;4.57;;;;;;;16.10;88.89;101658.66;6036505;28;20026;-65
2022/08/30 08:23:27;;;;;;;10.32;4.72;;;;;;;16.21;88.71;101673.59;6044898;28;20034;-65
2022/08/30 08:26:23;;;;;;;7.68;4.13;;;;;;;15.99;89.11;101665.13;6035902;28;20050;-64
2022/08/30 08:29:18;;;;;;;7.93;3.63;;;;;;;16.00;90.09;101668.66;6034613;28;20092;-65
2022/08/30 08:32:13;;;;;;;8.25;4.13;;;;;;;16.36;88.28;101675.53;6026960;28;20025;-66
2022/08/30 08:35:10;;;;;;;7.50;3.90;;;;;;;16.08;89.59;101671.38;6046961;28;20030;-66
2022/08/30 08:38:05;;;;;;;8.70;4.53;;;;;;;16.05;90.23;101677.03;6045380;28;20087;-65
2022/08/30 08:41:40;;;;;;;9.10;4.33;;;;;;;16.03;90.82;101679.84;6046456;28;20033;-66
2022/08/30 08:44:58;;;;;;;8.10;3.85;;;;;;;16.23;89.95;101682.31;6052614;28;20312;-64
2022/08/30 08:48:01;;;;;;;8.98;3.90;;;;;;;16.17;90.24;101680.28;6038139;28;20026;-65
2022/08/30 08:54:14;;;;;;;8.07;4.35;;;;;;;15.94;88.99;101671.94;6043485;28;20470;-65
2022/08/30 08:57:09;;;;;;;7.47;3.83;;;;;;;15.78;90.85;101669.16;6027531;28;20106;-65
2022/08/30 09:00:10;;;;;;;7.13;3.58;;;;;;;16.12;88.59;101685.25;6037895;28;20144;-64
2022/08/30 09:03:05;;;;;;;8.35;3.47;;;;;;;16.31;86.99;101685.03;6041201;28;20033;-65
2022/08/30 09:06:03;;;;;;;5.85;3.05;;;;;;;16.42;86.27;101690.94;6052081;28;20058;-65
2022/08/30 09:08:58;;;;;;;6.55;3.08;;;;;;;16.67;84.70;101686.59;6038452;28;20061;-65
2022/08/30 09:11:53;;;;;;;5.30;2.67;;;;;;;16.88;84.26;101678.94;6039445;28;20428;-66
2022/08/30 09:15:14;;;;;;;8.20;3.33;;;;;;;16.89;83.83;101686.00;6040319;28;20421;-65
2022/08/30 09:18:10;;;;;;;7.45;3.75;;;;;;;16.80;84.68;101683.44;6026527;28;20060;-65
2022/08/30 09:21:06;;;;;;;6.30;3.63;;;;;;;16.88;83.44;101688.81;6040588;28;20441;-64
2022/08/30 09:24:03;;;;;;;7.53;3.35;;;;;;;16.76;83.74;101677.59;6040459;28;20512;-65
2022/08/30 09:27:25;;;;;;;8.52;4.53;;;;;;;17.47;81.17;101680.56;6040289;28;20062;-64
2022/08/30 09:30:24;;;;;;;7.25;4.15;;;;;;;17.51;80.19;101691.78;6046064;28;20152;-64
2022/08/30 09:33:19;;;;;;;8.13;4.60;;;;;;;17.98;78.47;101665.13;6038721;28;20136;-64
2022/08/30 09:36:23;;;;;;;7.95;3.80;;;;;;;18.56;74.60;101671.03;6028489;28;20030;-66
2022/08/30 09:39:24;;;;;;;7.13;4.13;;;;;;;18.63;74.62;101669.31;6044596;28;20025;-64
2022/08/30 09:42:25;;;;;;;7.03;3.88;;;;;;;18.01;76.86;101672.84;6034734;28;20053;-64
2022/08/30 09:45:35;;;;;;;9.40;4.60;;;;;;;18.41;76.21;101673.56;6034062;28;20493;-65
2022/08/30 09:48:42;;;;;;;6.93;3.88;;;;;;;18.85;72.55;101671.22;6044250;28;20044;-64
2022/08/30 09:51:50;;;;;;;5.90;3.63;;;;;;;19.19;71.49;101661.91;6040655;28;20038;-64
2022/08/30 09:55:15;;;;;;;6.00;3.13;;;;;;;19.85;69.54;101664.78;6038271;28;20540;-64
2022/08/30 09:58:27;;;;;;;7.43;2.90;;;;;;;20.13;67.74;101673.91;6039112;28;20113;-64
2022/08/30 10:01:27;;;;;;;5.22;3.30;;;;;;;20.13;66.51;101668.53;6058969;28;20400;-65
2022/08/30 10:04:31;;;;;;;5.00;3.33;;;;;;;19.41;69.23;101663.81;6044685;28;20050;-64
2022/08/30 10:07:45;;;;;;;5.65;3.50;;;;;;;18.93;71.35;101660.41;6045427;28;20465;-64
2022/08/30 10:10:57;;;;;;;5.65;3.17;;;;;;;18.75;71.83;101648.28;6044054;28;20049;-64
2022/08/30 10:14:33;;;;;;;3.88;2.55;;;;;;;19.54;69.57;101655.97;6043564;28;20138;-64
2022/08/30 10:17:47;;;;;;;3.88;2.28;;;;;;;20.17;65.85;101658.19;6040446;28;20567;-64
2022/08/30 10:21:05;;;;;;;3.58;2.33;;;;;;;20.22;65.82;101641.50;6060486;28;20429;-64
2022/08/30 10:24:04;;;;;;;4.10;2.50;;;;;;;20.96;64.06;101640.34;6040472;28;20169;-64
2022/08/30 10:27:06;;;;;;;3.17;2.20;;;;;;;20.91;62.57;101626.63;6046735;28;20033;-64
2022/08/30 10:30:10;;;;;;;3.42;2.17;;;;;;;21.22;61.87;101633.44;6054198;28;20045;-64
2022/08/30 10:33:13;;;;;;;3.47;2.20;;;;;;;20.96;62.50;101625.03;6048764;28;20040;-64
2022/08/30 10:36:11;;;;;;;4.68;2.13;;;;;;;21.53;60.50;101629.53;6065574;28;20044;-64
2022/08/30 10:39:10;;;;;;;4.07;2.20;;;;;;;21.49;61.04;101628.25;6048650;28;20041;-65
2022/08/30 10:42:11;;;;;;;3.35;1.90;;;;;;;21.79;60.64;101613.53;6048479;28;20109;-65
2022/08/30 10:45:10;;;;;;;3.38;2.00;;;;;;;22.47;57.78;101608.16;6026416;28;20030;-65
2022/08/30 10:48:13;;;;;;;3.45;2.08;;;;;;;22.11;58.35;101621.06;6034969;28;20030;-64
2022/08/30 10:51:14;;;;;;;2.63;1.80;;;;;;;22.31;57.32;101613.88;6025698;28;20034;-64
2022/08/30 10:54:17;;;;;;;3.38;1.95;;;;;;;21.76;58.06;101603.13;6047004;28;20041;-64
2022/08/30 10:57:13;;;;;;;2.67;1.63;;;;;;;21.76;58.99;101608.53;6048511;28;20038;-64
2022/08/30 11:00:12;;;;;;;2.63;1.63;;;;;;;22.25;56.60;101603.88;6046089;28;20477;-64
2022/08/30 11:03:11;;;;;;;2.28;1.40;;;;;;;22.39;55.82;101616.41;6037201;28;20117;-63
2022/08/30 11:06:30;;;;;;;3.25;1.55;;;;;;;22.74;55.17;101614.50;6047770;28;20033;-64
2022/08/30 11:09:41;;;;;;;2.92;1.65;;;;;;;23.67;52.77;101606.28;6055020;28;20034;-64
2022/08/30 11:12:54;;;;;;;2.65;1.40;;;;;;;24.27;51.16;101610.56;6047652;28;20484;-64
2022/08/30 11:16:08;;;;;;;2.20;1.40;;;;;;;23.79;49.65;101597.53;6048526;28;20096;-65
2022/08/30 11:19:15;;;;;;;2.33;1.10;;;;;;;23.72;50.65;101591.28;6048891;28;20038;-64
2022/08/30 11:22:28;;;;;;;2.75;1.27;;;;;;;23.91;48.86;101595.84;6048011;28;20121;-64
2022/08/30 11:25:45;;;;;;;3.90;1.00;;;;;;;24.14;48.63;101601.66;6047693;28;20116;-64
2022/08/30 11:28:41;;;;;;;3.03;1.10;;;;;;;23.38;48.19;101611.31;6038057;28;20068;-64
2022/08/30 11:31:39;;;;;;;1.67;1.00;;;;;;;23.98;47.20;101596.66;6033959;28;20362;-64
2022/08/30 11:34:43;;;;;;;1.15;0.95;;;;;;;24.23;47.14;101600.38;6046951;28;20567;-64
2022/08/30 11:37:42;;;;;;;2.30;1.10;;;;;;;23.53;48.32;101579.44;6035496;28;20056;-65
2022/08/30 11:41:06;;;;;;;1.48;0.98;;;;;;;23.73;47.96;101595.69;6053658;28;20045;-64
2022/08/30 11:44:23;;;;;;;3.10;1.20;;;;;;;23.81;47.32;101580.00;6024196;28;20078;-64
2022/08/30 11:47:39;;;;;;;1.50;1.00;;;;;;;24.22;45.92;101567.00;6039480;28;20036;-65
2022/08/30 11:50:58;;;;;;;1.35;0.82;;;;;;;24.24;46.21;101575.75;6033690;28;20080;-65
2022/08/30 11:54:01;;;;;;;2.95;1.08;;;;;;;23.12;48.58;101576.91;6039482;28;20113;-65
2022/08/30 11:57:23;;;;;;;1.75;1.25;;;;;;;23.04;49.15;101577.13;6044267;28;20034;-65
2022/08/30 12:00:35;;;;;;;1.65;1.10;;;;;;;23.31;48.23;101572.53;6040644;28;20069;-64
2022/08/30 12:03:31;;;;;;;1.25;0.90;;;;;;;23.05;46.64;101567.94;6040609;28;20033;-65
2022/08/30 12:06:42;;;;;;;1.50;0.98;;;;;;;23.96;46.85;101549.97;6030389;28;20100;-64
2022/08/30 12:09:43;;;;;;;2.10;1.35;;;;;;;23.88;46.13;101566.47;6035813;28;20049;-65
2022/08/30 12:12:46;;;;;;;1.05;0.90;;;;;;;24.16;44.25;101562.44;6044464;28;20481;-64
2022/08/30 12:15:55;;;;;;;1.83;0.95;;;;;;;24.51;42.85;101549.38;6038019;28;20049;-64
2022/08/30 12:19:00;;;;;;;1.73;0.90;;;;;;;24.15;44.60;101549.09;6039198;28;20586;-65
2022/08/30 12:22:01;;;;;;;1.00;0.90;;;;;;;24.44;43.93;101548.53;6045213;28;20084;-64
2022/08/30 12:24:56;;;;;;;1.67;1.00;;;;;;;24.08;44.74;101516.56;6045971;28;20025;-65
2022/08/30 12:28:08;;;;;;;1.08;0.80;;;;;;;24.62;43.75;101529.66;6044516;28;20040;-64
2022/08/30 12:31:10;;;;;;;1.33;0.75;;;;;;;24.55;42.67;101528.88;6022749;28;20363;-64
2022/08/30 12:34:05;;;;;;;1.90;1.05;;;;;;;25.28;41.66;101527.31;6044484;28;20103;-65
2022/08/30 12:37:04;;;;;;;1.65;1.08;;;;;;;24.91;41.80;101525.53;6039941;28;20469;-64
2022/08/30 12:40:14;;;;;;;1.45;0.80;;;;;;;25.32;41.03;101528.53;6035215;28;20386;-65
2022/08/30 12:43:23;;;;;;;1.73;1.02;;;;;;;25.30;41.93;101521.69;6044853;28;20109;-64
2022/08/30 12:46:18;;;;;;;1.30;0.85;;;;;;;25.94;40.41;101500.31;6037834;28;20022;-65
2022/08/30 12:49:16;;;;;;;1.95;0.90;;;;;;;26.00;40.35;101513.00;6030926;28;20465;-65
2022/08/30 12:52:19;;;;;;;1.08;0.90;;;;;;;25.84;39.83;101510.06;6044663;28;20503;-64
2022/08/30 12:55:19;;;;;;;2.03;0.90;;;;;;;25.53;40.52;101493.88;6045832;28;20038;-65
2022/08/30 12:58:15;;;;;;;2.55;1.13;;;;;;;25.34;41.07;101501.16;6041213;28;20037;-64
2022/08/30 13:01:14;;;;;;;1.90;1.02;;;;;;;25.18;41.19;101490.84;6044148;28;20030;-64
2022/08/30 13:04:18;;;;;;;1.40;0.93;;;;;;;24.84;42.16;101495.72;6046070;28;20025;-64
2022/08/30 13:07:30;;;;;;;3.25;1.10;;;;;;;24.27;42.90;101485.00;6041406;28;20030;-64
2022/08/30 13:10:25;;;;;;;2.75;0.90;;;;;;;24.58;42.52;101479.63;6040691;28;20142;-64
2022/08/30 13:13:46;;;;;;;1.90;1.10;;;;;;;24.41;43.26;101489.31;6046279;28;20057;-64
2022/08/30 13:16:41;;;;;;;1.52;0.95;;;;;;;24.79;42.90;101478.44;6040046;28;20038;-65
2022/08/30 13:19:40;;;;;;;1.00;0.88;;;;;;;25.57;41.61;101468.78;6031421;28;20030;-63
2022/08/30 13:22:37;;;;;;;1.48;0.93;;;;;;;26.39;39.25;101467.34;6036003;28;20515;-64
2022/08/30 13:25:34;;;;;;;1.33;1.00;;;;;;;26.76;38.27;101468.84;6046870;28;20034;-63
2022/08/30 13:28:29;;;;;;;3.72;1.10;;;;;;;26.29;39.67;101469.75;6060555;28;20038;-62
2022/08/30 13:31:26;;;;;;;1.83;1.10;;;;;;;25.57;41.25;101468.78;6040062;28;20065;-65
2022/08/30 13:34:22;;;;;;;1.92;1.05;;;;;;;24.82;41.99;101481.56;6033292;28;20026;-63
2022/08/30 13:37:21;;;;;;;1.60;0.90;;;;;;;24.51;43.40;101484.25;6042598;28;20045;-63
2022/08/30 13:40:18;;;;;;;1.42;0.93;;;;;;;23.92;44.04;101472.84;6042437;28;20035;-64
2022/08/30 13:43:13;;;;;;;1.13;0.85;;;;;;;23.57;45.16;101481.31;6035643;28;20121;-64
2022/08/30 13:46:10;;;;;;;1.10;0.90;;;;;;;23.18;45.77;101480.53;6032852;28;20048;-64
2022/08/30 13:49:09;;;;;;;2.28;1.20;;;;;;;23.17;45.84;101479.69;6032068;28;20037;-63
2022/08/30 13:52:06;;;;;;;2.90;1.02;;;;;;;23.01;46.14;101483.66;6043876;28;20084;-64
2022/08/30 13:55:02;;;;;;;1.42;0.90;;;;;;;22.89;46.39;101468.22;6044539;28;20037;-64
2022/08/30 13:57:57;;;;;;;1.75;1.08;;;;;;;22.89;46.94;101474.47;6024051;28;20030;-64